createdAt,value
2019-05-02T00:04:57.090Z,53982.79
2019-05-02T00:10:20.023Z,53997.93
2019-05-02T00:15:39.179Z,54028.20
2019-05-02T00:21:01.436Z,54004.99
2019-05-02T00:26:18.523Z,53991.87
2019-05-02T00:31:37.170Z,54006.00
2019-05-02T00:36:57.271Z,54001.96
2019-05-02T00:42:17.692Z,53977.74
2019-05-02T00:47:47.899Z,53978.75
2019-05-02T00:53:07.163Z,53943.43
2019-05-02T00:58:27.313Z,53979.76
2019-05-02T01:03:51.902Z,53992.88
2019-05-02T01:09:10.955Z,54003.98
2019-05-02T01:14:31.754Z,53974.71
2019-05-02T01:19:51.460Z,53992.88
2019-05-02T01:25:15.032Z,53999.95
2019-05-02T01:30:42.437Z,53965.63
2019-05-02T01:36:06.513Z,53981.78
2019-05-02T01:41:24.026Z,54027.20
2019-05-02T01:46:43.812Z,54011.05
2019-05-02T01:52:02.420Z,53957.55
2019-05-02T01:57:21.007Z,53994.90
2019-05-02T02:02:39.556Z,53996.92
2019-05-02T02:07:58.198Z,53980.77
2019-05-02T02:13:16.781Z,53976.73
2019-05-02T02:18:37.065Z,53977.74
2019-05-02T02:24:03.523Z,53982.79
2019-05-02T02:29:22.166Z,54012.05
2019-05-02T02:34:40.839Z,54021.14
2019-05-02T02:39:59.486Z,54021.14
2019-05-02T02:45:51.782Z,53965.63
2019-05-02T02:51:07.820Z,54029.21
2019-05-02T02:56:26.481Z,54000.95
2019-05-02T03:01:45.264Z,54007.01
2019-05-02T03:07:04.168Z,53996.92
2019-05-02T03:12:24.495Z,54032.24
2019-05-02T03:17:43.294Z,53961.59
2019-05-02T03:23:02.245Z,53984.80
2019-05-02T03:28:21.127Z,53971.68
2019-05-02T03:33:54.791Z,54034.26
2019-05-02T03:39:13.582Z,54006.00
2019-05-02T03:44:26.109Z,54018.11
2019-05-02T03:49:48.939Z,54017.10
2019-05-02T03:55:02.667Z,54016.09
2019-05-02T04:00:24.049Z,53999.95
2019-05-02T04:05:42.343Z,53983.80
2019-05-02T04:11:19.226Z,54014.07
2019-05-02T04:16:38.326Z,54003.98
2019-05-02T04:22:01.508Z,53988.84
2019-05-02T04:27:18.303Z,54036.28
2019-05-02T04:32:36.893Z,54001.96
2019-05-02T04:37:59.097Z,54071.60
2019-05-02T04:43:18.366Z,54029.21
2019-05-02T04:48:43.832Z,54032.24
2019-05-02T04:53:58.825Z,54029.21
2019-05-02T04:59:21.868Z,53999.95
2019-05-02T05:04:42.454Z,54018.11
2019-05-02T05:10:03.140Z,54056.46
2019-05-02T05:15:33.915Z,54042.34
2019-05-02T05:20:40.469Z,54036.28
2019-05-02T05:26:03.252Z,54041.32
2019-05-02T05:31:24.192Z,54017.10
2019-05-02T05:36:40.463Z,54007.01
2019-05-02T05:41:59.111Z,54058.48
2019-05-02T05:47:21.301Z,54053.43
2019-05-02T05:52:42.269Z,54044.35
2019-05-02T05:58:01.356Z,54078.67
2019-05-02T06:03:19.257Z,54037.29
2019-05-02T06:08:37.771Z,54057.47
2019-05-02T06:13:56.425Z,54056.46
2019-05-02T06:19:17.848Z,54075.64
2019-05-02T06:24:35.374Z,54051.42
2019-05-02T06:29:56.052Z,54023.16
2019-05-02T06:35:17.187Z,54063.53
2019-05-02T06:40:39.414Z,54071.60
2019-05-02T06:45:55.345Z,54046.37
2019-05-02T06:51:19.588Z,54049.40
2019-05-02T06:56:34.408Z,54083.71
2019-05-02T07:01:57.434Z,54029.21
2019-05-02T07:07:13.687Z,54042.34
2019-05-02T07:12:32.889Z,54041.32
2019-05-02T07:17:52.376Z,54053.43
2019-05-02T07:23:16.188Z,54080.68
2019-05-02T07:28:31.463Z,54035.27
2019-05-02T07:33:50.103Z,54049.40
2019-05-02T07:39:10.809Z,54035.27
2019-05-02T07:44:32.598Z,54048.39
2019-05-02T07:49:49.734Z,54033.25
2019-05-02T07:55:10.180Z,54068.57
2019-05-02T08:00:32.055Z,54075.64
2019-05-02T08:05:49.384Z,54032.24
2019-05-02T08:11:07.953Z,54053.43
2019-05-02T08:16:27.463Z,54046.37
2019-05-02T08:21:46.972Z,54045.36
2019-05-02T08:27:07.234Z,54045.36
2019-05-02T08:32:27.408Z,54047.38
2019-05-02T08:37:46.362Z,54033.25
2019-05-02T08:43:09.277Z,54046.37
2019-05-02T08:48:25.523Z,54074.63
2019-05-02T08:53:44.117Z,54040.31
2019-05-02T08:59:02.672Z,54040.31
2019-05-02T09:04:24.095Z,54030.22
2019-05-02T09:09:42.004Z,54038.30
2019-05-02T09:15:02.715Z,54041.32
2019-05-02T09:20:23.624Z,54083.71
2019-05-02T09:25:42.976Z,54061.51
2019-05-02T09:31:05.579Z,54047.38
2019-05-02T09:36:22.812Z,54054.45
2019-05-02T09:41:41.906Z,54068.57
2019-05-02T09:47:02.386Z,54045.36
2019-05-02T09:52:22.227Z,54071.60
2019-05-02T09:57:42.748Z,54030.22
2019-05-02T10:03:02.714Z,54063.53
2019-05-02T10:08:22.985Z,54026.19
2019-05-02T10:13:42.433Z,54069.58
2019-05-02T10:19:09.257Z,54076.65
2019-05-02T10:24:22.262Z,54066.56
2019-05-02T10:29:41.850Z,54055.45
2019-05-02T10:35:02.121Z,54032.24
2019-05-02T10:40:22.508Z,54073.62
2019-05-02T10:45:47.425Z,54064.54
2019-05-02T10:51:25.613Z,54056.46
2019-05-02T10:56:42.352Z,54063.53
2019-05-02T11:02:12.852Z,54059.49
2019-05-02T11:07:32.693Z,54059.49
2019-05-02T11:12:56.125Z,54045.36
2019-05-02T11:18:14.407Z,54064.54
2019-05-02T11:23:33.111Z,54063.53
2019-05-02T11:28:52.233Z,54050.41
2019-05-02T11:34:12.385Z,54056.46
2019-05-02T11:39:40.653Z,54060.50
2019-05-02T11:44:52.389Z,54101.88
2019-05-02T11:50:11.965Z,54068.57
2019-05-02T11:55:31.909Z,54104.91
2019-05-02T12:00:52.283Z,54086.74
2019-05-02T12:06:19.144Z,54084.72
2019-05-02T12:11:32.430Z,54059.49
2019-05-02T12:16:52.746Z,54077.66
2019-05-02T12:22:12.933Z,54056.46
2019-05-02T12:27:31.967Z,54051.42
2019-05-02T12:32:52.980Z,54075.64
2019-05-02T12:38:12.173Z,54050.41
2019-05-02T12:43:31.911Z,54066.56
2019-05-02T12:48:51.985Z,54049.40
2019-05-02T12:54:12.409Z,54070.59
2019-05-02T12:59:32.212Z,54052.43
2019-05-02T13:04:52.710Z,54058.48
2019-05-02T13:10:14.704Z,54054.45
2019-05-02T13:15:33.471Z,54063.53
2019-05-02T13:20:52.860Z,54066.56
2019-05-02T13:26:20.019Z,54034.26
2019-05-02T13:31:34.308Z,54037.29
2019-05-02T13:36:54.401Z,54035.27
2019-05-02T13:42:13.785Z,54082.71
2019-05-02T13:47:32.626Z,54075.64
2019-05-02T13:52:56.520Z,54021.14
2019-05-02T13:58:11.877Z,54081.70
2019-05-02T14:03:32.505Z,54081.70
2019-05-02T14:08:53.355Z,54061.51
2019-05-02T14:14:12.143Z,54054.45
2019-05-02T14:19:31.914Z,54084.72
2019-05-02T14:24:51.930Z,54099.86
2019-05-02T14:30:12.174Z,54062.52
2019-05-02T14:35:32.725Z,54055.45
2019-05-02T14:41:03.337Z,54043.34
2019-05-02T14:46:23.391Z,54050.41
2019-05-02T14:51:42.098Z,54035.27
2019-05-02T14:57:02.286Z,54070.59
2019-05-02T15:02:22.983Z,54045.36
2019-05-02T15:07:42.135Z,54048.39
2019-05-02T15:13:01.928Z,54036.28
2019-05-02T15:18:22.772Z,54048.39
2019-05-02T15:23:42.311Z,54037.29
2019-05-02T15:29:01.933Z,54033.25
2019-05-02T15:34:35.506Z,54060.50
2019-05-02T15:45:15.169Z,54050.41
2019-05-02T15:50:33.803Z,54038.30
2019-05-02T15:55:52.724Z,54053.43
2019-05-02T16:01:14.234Z,54092.80
2019-05-02T16:06:33.901Z,54046.37
2019-05-02T16:11:56.761Z,54084.72
2019-05-02T16:17:17.727Z,54044.35
2019-05-02T16:22:38.307Z,54051.42
2019-05-02T16:27:57.499Z,54055.45
2019-05-02T16:33:19.695Z,54034.26
2019-05-02T16:38:35.227Z,54038.30
2019-05-02T16:43:54.592Z,54048.39
2019-05-02T16:49:16.858Z,54028.20
2019-05-02T16:54:41.559Z,54019.12
2019-05-02T17:00:01.502Z,54049.40
2019-05-02T17:05:14.961Z,54017.10
2019-05-02T17:10:47.433Z,54050.41
2019-05-02T17:16:13.115Z,54058.48
2019-05-02T17:21:26.948Z,54046.37
2019-05-02T17:26:47.260Z,54021.14
2019-05-02T17:32:08.774Z,54009.03
2019-05-02T17:37:26.436Z,54065.55
2019-05-02T17:42:45.124Z,54025.18
2019-05-02T17:48:09.878Z,54095.82
2019-05-02T17:53:24.569Z,54061.51
2019-05-02T17:58:47.470Z,54060.50
2019-05-02T18:04:06.993Z,54042.34
2019-05-02T18:09:26.248Z,54036.28
2019-05-02T18:14:44.450Z,54069.58
2019-05-02T18:20:05.929Z,54058.48
2019-05-02T18:25:25.188Z,54035.27
2019-05-02T18:30:44.006Z,54048.39
2019-05-02T18:36:02.679Z,54074.63
2019-05-02T18:41:22.419Z,54051.42
2019-05-02T18:46:42.620Z,54034.26
2019-05-02T18:52:01.834Z,54037.29
2019-05-02T18:57:24.467Z,54083.71
2019-05-02T19:02:42.476Z,54061.51
2019-05-02T19:08:02.628Z,54074.63
2019-05-02T19:13:22.307Z,54032.24
2019-05-02T19:18:42.509Z,54079.68
2019-05-02T19:24:02.311Z,54068.57
2019-05-02T19:29:28.697Z,54054.45
2019-05-02T19:34:47.281Z,54045.36
2019-05-02T19:40:09.731Z,54062.52
2019-05-02T19:45:28.602Z,54050.41
2019-05-02T19:50:47.281Z,54031.23
2019-05-02T19:56:06.750Z,54078.67
2019-05-02T20:01:26.625Z,54086.74
2019-05-02T20:06:48.741Z,54090.78
2019-05-02T20:12:09.653Z,54073.62
2019-05-02T20:17:28.041Z,54055.45
2019-05-02T20:22:47.188Z,54062.52
2019-05-02T20:28:06.308Z,54078.67
2019-05-02T20:33:24.957Z,54063.53
2019-05-02T20:38:43.977Z,54043.34
2019-05-02T20:44:05.680Z,54035.27
2019-05-02T20:49:24.669Z,54082.71
2019-05-02T20:54:43.726Z,54071.60
2019-05-02T21:00:02.550Z,54094.82
2019-05-02T21:05:24.823Z,54054.45
2019-05-02T21:10:52.289Z,54041.32
2019-05-02T21:16:12.522Z,54066.56
2019-05-02T21:21:33.535Z,54074.63
2019-05-02T21:26:52.726Z,54055.45
2019-05-02T21:32:12.022Z,54033.25
2019-05-02T21:37:31.993Z,54073.62
2019-05-02T21:42:53.814Z,54074.63
2019-05-02T21:48:14.866Z,54039.30
2019-05-02T21:53:35.520Z,54041.32
2019-05-02T21:59:12.937Z,54082.71
2019-05-02T22:04:31.912Z,54039.30
2019-05-02T22:09:52.255Z,54045.36
2019-05-02T22:15:12.743Z,54044.35
2019-05-02T22:20:32.101Z,54061.51
2019-05-02T22:25:52.538Z,54037.29
2019-05-02T22:31:12.376Z,54075.64
2019-05-02T22:36:32.736Z,54075.64
2019-05-02T22:41:52.600Z,54069.58
2019-05-02T22:47:11.800Z,54043.34
2019-05-02T22:52:32.320Z,54049.40
2019-05-02T22:57:51.781Z,54080.68
2019-05-02T23:03:12.553Z,54044.35
2019-05-02T23:08:31.360Z,54070.59
2019-05-02T23:13:51.761Z,54024.17
2019-05-02T23:19:12.319Z,54060.50
2019-05-02T23:24:49.159Z,54056.46
2019-05-02T23:30:11.588Z,54072.61
2019-05-02T23:35:31.983Z,54063.53
2019-05-02T23:40:52.610Z,54046.37
2019-05-02T23:46:11.611Z,54030.22
2019-05-02T23:51:32.096Z,54029.21
2019-05-02T23:56:50.891Z,54066.56
